Time;durP1;ratioP1;P1;durP2;ratioP2;P2;SDS_P1;SDS_P2;PMS_P1;PMS_P2;Temp;Humidity;BMP_temperature;BMP_pressure;BME280_temperature;BME280_humidity;BME280_pressure;Samples;Min_cycle;Max_cycle;Signal;HPM_P1;HPM_P2
2022/01/21 00:01:14;;;;;;;121.90;70.30;;;;;;;;;;5015039;28;20128;-64
2022/01/21 00:03:41;;;;;;;148.83;71.03;;;;;;;;;;5018694;28;20033;-64
2022/01/21 00:06:07;;;;;;;138.83;69.93;;;;;;;;;;5016380;28;20053;-64
2022/01/21 00:08:44;;;;;;;123.67;68.07;;;;;;;;;;5018943;28;20084;-63
2022/01/21 00:11:11;;;;;;;117.03;67.03;;;;;;;;;;5017502;28;20045;-63
2022/01/21 00:13:37;;;;;;;122.90;67.87;;;;;;;;;;5012799;28;20087;-63
2022/01/21 00:16:08;;;;;;;117.53;65.60;;;;;;;;;;5017681;28;20491;-63
2022/01/21 00:18:35;;;;;;;127.30;66.20;;;;;;;;;;5018268;28;20099;-63
2022/01/21 00:32:01;;;;;;;118.05;66.28;;;;;;;;;;5015969;28;20060;-63
2022/01/21 00:34:27;;;;;;;125.30;68.93;;;;;;;;;;5012415;28;20488;-63
2022/01/21 00:36:53;;;;;;;130.80;68.83;;;;;;;;;;5009005;28;20041;-63
2022/01/21 00:39:23;;;;;;;124.43;69.70;;;;;;;;;;5016260;28;20531;-63
2022/01/21 00:42:15;;;;;;;136.70;75.70;;;;;;;;;;5012966;28;20037;-63
2022/01/21 00:44:38;;;;;;;125.37;70.90;;;;;;;;;;5017207;28;20033;-63
2022/01/21 00:47:05;;;;;;;134.07;70.57;;;;;;;;;;5012237;28;20044;-63
2022/01/21 00:49:31;;;;;;;139.10;74.20;;;;;;;;;;5022659;28;20091;-63
2022/01/21 00:51:57;;;;;;;131.77;71.07;;;;;;;;;;5007162;28;20125;-63
2022/01/21 00:54:24;;;;;;;136.10;74.10;;;;;;;;;;5007471;28;20434;-63
2022/01/21 00:56:50;;;;;;;136.13;74.23;;;;;;;;;;5018187;28;20053;-63
2022/01/21 00:59:16;;;;;;;132.27;73.97;;;;;;;;;;5021590;28;20091;-63
2022/01/21 01:01:42;;;;;;;135.07;74.73;;;;;;;;;;5013457;28;20084;-63
2022/01/21 01:04:08;;;;;;;133.53;74.53;;;;;;;;;;5007278;28;20107;-63
2022/01/21 01:06:34;;;;;;;137.73;74.43;;;;;;;;;;5019894;28;20499;-63
2022/01/21 01:09:00;;;;;;;129.27;76.30;;;;;;;;;;5011333;28;20651;-63
2022/01/21 01:22:08;;;;;;;144.10;76.43;;;;;;;;;;5000354;28;20125;-63
2022/01/21 01:27:41;;;;;;;131.25;73.53;;;;;;;;;;4998325;28;20116;-63
2022/01/21 01:30:12;;;;;;;134.70;74.33;;;;;;;;;;4998496;28;20080;-63
2022/01/21 01:32:39;;;;;;;144.70;77.10;;;;;;;;;;4999438;28;20084;-63
2022/01/21 01:35:05;;;;;;;143.17;77.33;;;;;;;;;;4998204;28;20022;-63
2022/01/21 01:38:00;;;;;;;131.07;75.20;;;;;;;;;;4989157;28;20144;-63
2022/01/21 01:40:36;;;;;;;136.60;75.90;;;;;;;;;;5003182;28;20382;-63
2022/01/21 01:50:53;;;;;;;140.67;75.43;;;;;;;;;;5012497;28;20041;-63
2022/01/21 01:53:20;;;;;;;134.57;76.33;;;;;;;;;;5012076;28;20042;-63
2022/01/21 01:55:47;;;;;;;133.87;75.67;;;;;;;;;;5007620;28;20506;-63
2022/01/21 01:58:14;;;;;;;134.37;75.63;;;;;;;;;;5008066;28;20078;-63
2022/01/21 02:00:41;;;;;;;135.33;75.07;;;;;;;;;;5000043;28;20121;-63
2022/01/21 02:03:08;;;;;;;136.37;76.47;;;;;;;;;;5002729;28;20060;-63
2022/01/21 02:05:34;;;;;;;133.27;76.37;;;;;;;;;;5006072;28;20446;-63
2022/01/21 02:08:00;;;;;;;127.53;74.03;;;;;;;;;;5011200;28;20033;-63
2022/01/21 02:10:26;;;;;;;130.53;73.80;;;;;;;;;;5009619;28;20057;-63
2022/01/21 02:13:02;;;;;;;130.43;72.47;;;;;;;;;;4988304;28;20046;-63
2022/01/21 02:15:28;;;;;;;138.27;75.57;;;;;;;;;;4982186;28;20409;-63
2022/01/21 02:23:24;;;;;;;125.55;71.78;;;;;;;;;;5016558;28;20103;-63
2022/01/21 02:25:50;;;;;;;119.47;69.57;;;;;;;;;;5002895;28;20527;-63
2022/01/21 02:28:16;;;;;;;129.63;71.53;;;;;;;;;;4995755;28;20042;-63
2022/01/21 02:30:58;;;;;;;127.47;70.50;;;;;;;;;;4988438;28;20388;-63
2022/01/21 02:33:24;;;;;;;128.20;71.70;;;;;;;;;;5001409;28;20046;-63
2022/01/21 02:35:51;;;;;;;126.90;72.43;;;;;;;;;;5016355;28;20439;-63
2022/01/21 02:38:16;;;;;;;132.27;72.40;;;;;;;;;;5020607;28;20038;-63
2022/01/21 02:40:43;;;;;;;128.87;73.53;;;;;;;;;;5008861;28;20538;-63
2022/01/21 02:43:09;;;;;;;128.80;71.00;;;;;;;;;;5014367;28;20037;-63
2022/01/21 02:45:37;;;;;;;124.90;70.13;;;;;;;;;;5011131;28;20049;-63
2022/01/21 02:48:05;;;;;;;132.53;72.97;;;;;;;;;;5017835;28;20065;-63
2022/01/21 02:50:31;;;;;;;137.60;76.17;;;;;;;;;;5011646;28;20037;-63
2022/01/21 02:53:11;;;;;;;136.27;75.57;;;;;;;;;;5010837;28;20038;-63
2022/01/21 02:55:37;;;;;;;142.53;75.23;;;;;;;;;;5014779;28;20069;-63
2022/01/21 02:58:03;;;;;;;134.40;75.27;;;;;;;;;;5022113;28;20062;-63
2022/01/21 03:00:29;;;;;;;130.90;72.60;;;;;;;;;;5016037;28;20121;-63
2022/01/21 03:02:55;;;;;;;127.73;72.70;;;;;;;;;;5019539;28;20045;-63
2022/01/21 03:05:21;;;;;;;133.73;76.30;;;;;;;;;;5040777;28;20034;-63
2022/01/21 03:07:48;;;;;;;134.07;73.57;;;;;;;;;;5020571;28;20068;-63
2022/01/21 03:10:14;;;;;;;137.37;75.40;;;;;;;;;;5005666;28;20045;-63
2022/01/21 03:12:40;;;;;;;133.20;74.50;;;;;;;;;;5004498;28;20049;-63
2022/01/21 03:15:07;;;;;;;134.93;73.97;;;;;;;;;;5007003;28;20076;-63
2022/01/21 03:17:33;;;;;;;130.83;73.70;;;;;;;;;;5013185;28;20049;-63
2022/01/21 03:20:00;;;;;;;130.73;72.77;;;;;;;;;;5021788;28;20120;-63
2022/01/21 03:22:26;;;;;;;131.20;71.33;;;;;;;;;;5011961;28;20033;-63
2022/01/21 03:24:52;;;;;;;132.27;73.13;;;;;;;;;;5016816;28;20061;-63
2022/01/21 03:27:18;;;;;;;123.13;70.17;;;;;;;;;;5009795;28;20049;-63
2022/01/21 03:29:44;;;;;;;124.70;71.03;;;;;;;;;;4998683;28;20038;-63
2022/01/21 03:32:10;;;;;;;121.83;68.30;;;;;;;;;;4999574;28;20038;-63
2022/01/21 03:34:36;;;;;;;125.87;69.77;;;;;;;;;;5002897;28;20038;-63
2022/01/21 03:37:02;;;;;;;117.43;70.20;;;;;;;;;;5015283;28;20092;-63
2022/01/21 03:39:28;;;;;;;126.37;71.67;;;;;;;;;;5018286;28;20121;-63
2022/01/21 03:41:54;;;;;;;125.47;70.53;;;;;;;;;;5014504;28;20030;-63
2022/01/21 03:44:20;;;;;;;129.67;71.13;;;;;;;;;;5018395;28;20402;-63
2022/01/21 03:46:47;;;;;;;127.43;72.27;;;;;;;;;;5014280;28;20483;-63
2022/01/21 03:49:13;;;;;;;125.63;70.90;;;;;;;;;;4996208;28;20077;-63
2022/01/21 03:51:39;;;;;;;125.13;69.93;;;;;;;;;;4997833;28;20069;-63
2022/01/21 03:54:05;;;;;;;121.30;67.87;;;;;;;;;;4994862;28;20551;-63
2022/01/21 03:56:31;;;;;;;122.67;69.73;;;;;;;;;;4997893;28;20047;-63
2022/01/21 03:58:57;;;;;;;129.07;70.80;;;;;;;;;;5020837;28;20029;-63
2022/01/21 04:01:24;;;;;;;135.37;72.10;;;;;;;;;;5018125;28;20108;-63
2022/01/21 04:03:51;;;;;;;133.10;72.83;;;;;;;;;;5004309;28;20042;-63
2022/01/21 04:06:17;;;;;;;133.40;72.97;;;;;;;;;;4999958;28;20038;-63
2022/01/21 04:08:43;;;;;;;135.13;71.77;;;;;;;;;;4994135;28;20049;-63
2022/01/21 04:11:09;;;;;;;135.70;73.40;;;;;;;;;;4995700;28;20034;-63
2022/01/21 04:13:35;;;;;;;137.53;71.37;;;;;;;;;;5007238;28;20037;-64
2022/01/21 04:16:01;;;;;;;123.43;70.60;;;;;;;;;;5017576;28;20498;-63
2022/01/21 04:18:29;;;;;;;127.10;70.10;;;;;;;;;;5012540;28;20030;-63
2022/01/21 04:20:55;;;;;;;129.87;70.57;;;;;;;;;;5009771;28;20036;-64
2022/01/21 04:23:22;;;;;;;127.60;70.10;;;;;;;;;;5014241;28;21188;-64
2022/01/21 04:25:49;;;;;;;129.33;70.53;;;;;;;;;;5015581;28;20037;-64
2022/01/21 04:28:15;;;;;;;123.97;69.37;;;;;;;;;;5013277;28;20043;-64
2022/01/21 04:30:41;;;;;;;123.77;70.03;;;;;;;;;;5016810;28;20120;-64
2022/01/21 04:33:08;;;;;;;131.47;70.63;;;;;;;;;;5021693;28;20033;-64
2022/01/21 04:35:35;;;;;;;128.53;70.20;;;;;;;;;;5023522;28;20457;-64
2022/01/21 04:38:05;;;;;;;124.13;69.50;;;;;;;;;;5019123;28;20073;-64
2022/01/21 04:40:36;;;;;;;126.50;67.60;;;;;;;;;;5012966;28;20034;-64
2022/01/21 04:48:32;;;;;;;128.57;68.60;;;;;;;;;;5019282;28;20103;-64
2022/01/21 04:51:12;;;;;;;121.43;66.73;;;;;;;;;;5011744;28;20076;-64
2022/01/21 04:54:11;;;;;;;116.77;65.70;;;;;;;;;;5008641;28;20045;-64
2022/01/21 04:56:37;;;;;;;126.33;67.53;;;;;;;;;;4999954;28;20037;-64
2022/01/21 04:59:04;;;;;;;124.70;66.57;;;;;;;;;;4993936;28;20034;-64
2022/01/21 05:01:30;;;;;;;123.20;66.60;;;;;;;;;;4995317;28;20073;-64
2022/01/21 05:03:56;;;;;;;125.60;67.97;;;;;;;;;;4989956;28;20065;-64
2022/01/21 05:06:22;;;;;;;121.50;65.97;;;;;;;;;;4988469;28;20042;-64
2022/01/21 05:08:54;;;;;;;125.53;66.73;;;;;;;;;;4988252;28;20046;-64
2022/01/21 05:11:20;;;;;;;131.03;68.70;;;;;;;;;;4993192;28;20038;-64
2022/01/21 05:14:11;;;;;;;124.60;66.23;;;;;;;;;;4997413;28;20034;-64
2022/01/21 05:16:39;;;;;;;127.37;67.80;;;;;;;;;;5010676;28;20064;-64
2022/01/21 05:19:14;;;;;;;128.00;67.70;;;;;;;;;;5008978;28;20038;-64
2022/01/21 05:21:40;;;;;;;125.17;69.80;;;;;;;;;;5013217;28;20069;-64
2022/01/21 05:24:07;;;;;;;115.27;61.90;;;;;;;;;;5014339;28;20073;-64
2022/01/21 05:26:37;;;;;;;119.27;62.67;;;;;;;;;;5020401;28;20403;-64
2022/01/21 05:29:04;;;;;;;110.80;62.87;;;;;;;;;;5017113;28;20033;-64
2022/01/21 05:31:30;;;;;;;122.57;65.37;;;;;;;;;;5009617;28;20407;-63
2022/01/21 05:33:56;;;;;;;111.90;60.20;;;;;;;;;;5004334;28;20458;-63
2022/01/21 05:36:22;;;;;;;115.00;61.73;;;;;;;;;;4991648;28;20042;-63
2022/01/21 05:38:48;;;;;;;115.17;60.97;;;;;;;;;;5000946;28;20083;-63
2022/01/21 05:41:14;;;;;;;116.80;62.83;;;;;;;;;;5021930;28;20034;-63
2022/01/21 05:43:46;;;;;;;108.33;59.00;;;;;;;;;;4992682;28;20037;-63
2022/01/21 05:46:23;;;;;;;121.30;64.57;;;;;;;;;;4997607;28;20434;-63
2022/01/21 05:48:49;;;;;;;116.27;62.07;;;;;;;;;;5003727;28;20125;-64
2022/01/21 05:51:19;;;;;;;115.60;60.40;;;;;;;;;;5012911;28;20041;-64
2022/01/21 05:53:45;;;;;;;120.17;63.43;;;;;;;;;;5012982;28;20053;-63
2022/01/21 05:56:12;;;;;;;122.37;63.53;;;;;;;;;;5012445;28;20038;-63
2022/01/21 05:58:38;;;;;;;111.70;60.80;;;;;;;;;;5008115;28;20046;-63
2022/01/21 06:01:04;;;;;;;110.63;60.97;;;;;;;;;;5014970;28;20049;-63
2022/01/21 06:03:34;;;;;;;112.20;60.97;;;;;;;;;;5007244;28;20042;-63
2022/01/21 06:06:00;;;;;;;109.47;61.00;;;;;;;;;;5011543;28;20056;-63
2022/01/21 06:08:26;;;;;;;111.23;58.90;;;;;;;;;;5017189;28;20388;-63
2022/01/21 06:10:52;;;;;;;115.70;62.40;;;;;;;;;;5003761;28;20033;-63
2022/01/21 06:13:19;;;;;;;112.50;62.23;;;;;;;;;;5016585;28;20036;-63
2022/01/21 06:15:45;;;;;;;112.37;63.07;;;;;;;;;;5008869;28;20042;-63
2022/01/21 06:18:12;;;;;;;119.73;64.83;;;;;;;;;;5018118;28;20483;-63
2022/01/21 06:20:39;;;;;;;119.77;62.77;;;;;;;;;;5007136;28;20049;-63
2022/01/21 06:23:05;;;;;;;110.10;61.10;;;;;;;;;;5008850;28;20056;-63
2022/01/21 06:25:31;;;;;;;111.37;61.17;;;;;;;;;;4991873;28;20492;-63
2022/01/21 06:27:57;;;;;;;114.60;60.53;;;;;;;;;;4993994;28;20046;-64
2022/01/21 06:30:23;;;;;;;113.50;61.37;;;;;;;;;;5011693;28;20124;-64
2022/01/21 06:32:49;;;;;;;115.87;64.07;;;;;;;;;;5017020;28;20050;-64
2022/01/21 06:35:16;;;;;;;103.93;56.90;;;;;;;;;;5018166;28;20057;-64
2022/01/21 06:37:42;;;;;;;109.97;60.67;;;;;;;;;;5040778;28;20045;-64
2022/01/21 06:40:10;;;;;;;103.70;58.33;;;;;;;;;;5021529;28;20076;-63
2022/01/21 06:42:36;;;;;;;105.30;56.73;;;;;;;;;;5011061;28;20046;-63
2022/01/21 06:45:03;;;;;;;109.63;60.07;;;;;;;;;;5020544;28;20403;-63
2022/01/21 06:47:29;;;;;;;103.70;59.17;;;;;;;;;;5016424;28;20558;-63
2022/01/21 06:49:58;;;;;;;103.40;58.40;;;;;;;;;;5014292;28;20041;-63
2022/01/21 06:52:25;;;;;;;104.77;58.30;;;;;;;;;;5017399;28;20149;-63
2022/01/21 06:54:51;;;;;;;106.97;56.50;;;;;;;;;;5010994;28;20704;-63
2022/01/21 06:57:17;;;;;;;93.83;54.07;;;;;;;;;;5011725;28;20046;-63
2022/01/21 06:59:43;;;;;;;95.87;54.17;;;;;;;;;;5008026;28;20041;-63
2022/01/21 07:02:09;;;;;;;97.23;55.20;;;;;;;;;;5014784;28;20566;-63
2022/01/21 07:04:35;;;;;;;94.43;52.60;;;;;;;;;;5012487;28;20507;-63
2022/01/21 07:07:02;;;;;;;91.60;51.77;;;;;;;;;;5014177;28;20496;-63
2022/01/21 07:09:28;;;;;;;95.67;53.73;;;;;;;;;;5008198;28;20034;-63
2022/01/21 07:11:54;;;;;;;93.57;51.77;;;;;;;;;;5007351;28;20038;-64
2022/01/21 07:14:21;;;;;;;90.13;52.10;;;;;;;;;;5003730;28;20038;-64
2022/01/21 07:16:47;;;;;;;92.80;52.53;;;;;;;;;;5005777;28;20044;-64
2022/01/21 07:19:13;;;;;;;94.20;52.57;;;;;;;;;;5014745;28;20345;-64
2022/01/21 07:21:40;;;;;;;89.17;50.83;;;;;;;;;;5012007;28;20563;-64
2022/01/21 07:24:06;;;;;;;90.17;50.07;;;;;;;;;;5000193;28;20058;-64
2022/01/21 07:26:32;;;;;;;84.90;48.20;;;;;;;;;;5000944;28;20040;-63
2022/01/21 07:28:58;;;;;;;89.17;50.83;;;;;;;;;;5001719;28;20424;-64
2022/01/21 07:31:26;;;;;;;91.37;49.97;;;;;;;;;;4988125;28;20133;-64
2022/01/21 07:33:52;;;;;;;86.47;49.70;;;;;;;;;;5001913;28;20487;-63
2022/01/21 07:36:18;;;;;;;93.23;50.77;;;;;;;;;;5007216;28;20034;-64
2022/01/21 07:38:45;;;;;;;89.40;49.33;;;;;;;;;;5014668;28;20072;-64
2022/01/21 07:41:11;;;;;;;82.87;49.30;;;;;;;;;;5013643;28;20079;-64
2022/01/21 07:43:37;;;;;;;86.20;50.13;;;;;;;;;;5008899;28;20037;-64
2022/01/21 07:46:03;;;;;;;87.80;51.00;;;;;;;;;;5013211;28;20057;-64
2022/01/21 07:48:29;;;;;;;93.00;51.93;;;;;;;;;;5016226;28;20491;-64
2022/01/21 07:50:55;;;;;;;89.27;50.33;;;;;;;;;;5010605;28;20071;-64
2022/01/21 07:53:21;;;;;;;88.63;49.23;;;;;;;;;;5011280;28;20124;-64
2022/01/21 07:55:50;;;;;;;96.30;52.13;;;;;;;;;;5003708;28;20399;-64
2022/01/21 07:58:16;;;;;;;93.07;50.57;;;;;;;;;;4995355;28;20069;-64
2022/01/21 08:00:42;;;;;;;90.43;51.20;;;;;;;;;;4992969;28;20038;-64
2022/01/21 08:03:08;;;;;;;83.00;49.27;;;;;;;;;;4991215;28;20030;-64
2022/01/21 08:05:35;;;;;;;82.17;48.87;;;;;;;;;;4998615;28;20045;-64
2022/01/21 08:08:01;;;;;;;85.57;48.30;;;;;;;;;;4992263;28;20054;-64
2022/01/21 08:10:27;;;;;;;89.13;49.03;;;;;;;;;;5014223;28;20042;-64
2022/01/21 08:12:53;;;;;;;89.57;50.97;;;;;;;;;;5013910;28;20527;-64
2022/01/21 08:15:19;;;;;;;92.87;51.63;;;;;;;;;;5009394;28;20441;-64
2022/01/21 08:17:45;;;;;;;88.70;48.10;;;;;;;;;;5016538;28;20038;-64
2022/01/21 08:20:11;;;;;;;85.30;48.27;;;;;;;;;;5013986;28;20106;-64
2022/01/21 08:22:37;;;;;;;86.10;48.57;;;;;;;;;;5020031;28;20044;-64
2022/01/21 08:25:04;;;;;;;87.93;49.30;;;;;;;;;;5014955;28;20042;-64
2022/01/21 08:27:30;;;;;;;85.20;49.33;;;;;;;;;;5005251;28;20057;-62
2022/01/21 08:29:56;;;;;;;85.07;48.13;;;;;;;;;;5015424;28;20114;-62
2022/01/21 08:32:23;;;;;;;83.17;47.80;;;;;;;;;;5015632;28;20033;-61
2022/01/21 08:34:49;;;;;;;87.97;49.73;;;;;;;;;;5003550;28;20163;-62
2022/01/21 08:37:16;;;;;;;83.50;47.63;;;;;;;;;;5006978;28;20120;-63
2022/01/21 08:39:43;;;;;;;85.40;49.10;;;;;;;;;;5008462;28;20037;-61
2022/01/21 08:42:09;;;;;;;84.07;48.90;;;;;;;;;;5012414;28;20046;-61
2022/01/21 08:44:35;;;;;;;86.93;50.00;;;;;;;;;;5007836;28;20041;-61
2022/01/21 08:47:02;;;;;;;85.37;48.57;;;;;;;;;;5010543;28;20404;-62
2022/01/21 08:49:28;;;;;;;87.17;50.80;;;;;;;;;;5007557;28;20088;-62
2022/01/21 08:51:56;;;;;;;84.23;49.13;;;;;;;;;;4999223;28;20109;-61
2022/01/21 08:54:23;;;;;;;87.83;50.83;;;;;;;;;;5008656;28;20458;-62
2022/01/21 08:56:50;;;;;;;87.83;47.87;;;;;;;;;;5008021;28;20048;-62
2022/01/21 08:59:17;;;;;;;87.23;53.53;;;;;;;;;;5011309;28;20087;-62
2022/01/21 09:01:48;;;;;;;94.27;55.80;;;;;;;;;;4991679;28;20096;-62
2022/01/21 09:04:14;;;;;;;92.20;56.73;;;;;;;;;;4994872;28;20124;-61
2022/01/21 09:06:40;;;;;;;87.50;49.63;;;;;;;;;;5003052;28;20057;-61
2022/01/21 09:09:06;;;;;;;86.27;48.23;;;;;;;;;;5004695;28;20474;-61
2022/01/21 09:11:32;;;;;;;89.17;51.03;;;;;;;;;;5012900;28;20034;-62
2022/01/21 09:13:59;;;;;;;91.57;52.20;;;;;;;;;;5008376;28;20033;-62
2022/01/21 09:16:25;;;;;;;92.33;52.10;;;;;;;;;;5011105;28;20056;-63
2022/01/21 09:18:55;;;;;;;92.07;50.93;;;;;;;;;;4994709;28;20038;-62
2022/01/21 09:21:23;;;;;;;90.80;51.30;;;;;;;;;;5022395;28;20112;-63
2022/01/21 09:23:50;;;;;;;89.07;53.13;;;;;;;;;;4991350;28;20444;-62
2022/01/21 09:26:20;;;;;;;88.80;51.63;;;;;;;;;;4995300;28;20064;-62
2022/01/21 09:28:46;;;;;;;94.63;52.17;;;;;;;;;;4991747;28;20041;-62
2022/01/21 09:31:13;;;;;;;97.17;53.60;;;;;;;;;;5014742;28;20072;-62
2022/01/21 09:33:40;;;;;;;89.70;52.47;;;;;;;;;;5005450;28;20042;-62
2022/01/21 09:36:06;;;;;;;100.43;53.03;;;;;;;;;;5005780;28;20069;-62
2022/01/21 09:38:32;;;;;;;93.57;53.77;;;;;;;;;;5012880;28;20569;-62
2022/01/21 09:40:58;;;;;;;91.70;52.23;;;;;;;;;;5013245;28;20033;-63
2022/01/21 09:43:25;;;;;;;101.57;55.90;;;;;;;;;;5009675;28;20029;-63
2022/01/21 09:45:53;;;;;;;96.33;55.03;;;;;;;;;;5009703;28;20072;-63
2022/01/21 09:48:25;;;;;;;101.13;54.67;;;;;;;;;;5010418;28;20054;-61
2022/01/21 09:50:52;;;;;;;103.80;56.83;;;;;;;;;;5005498;28;20050;-61
2022/01/21 09:53:19;;;;;;;105.33;57.37;;;;;;;;;;5014392;28;20431;-61
2022/01/21 09:55:45;;;;;;;103.20;58.00;;;;;;;;;;5043638;28;20034;-62
2022/01/21 09:58:11;;;;;;;102.00;56.30;;;;;;;;;;5015622;28;20038;-62
2022/01/21 10:00:37;;;;;;;114.43;61.23;;;;;;;;;;5008372;28;20041;-62
2022/01/21 10:03:04;;;;;;;103.67;56.73;;;;;;;;;;4994862;28;20404;-63
2022/01/21 10:05:31;;;;;;;120.50;59.47;;;;;;;;;;4997630;28;20049;-63
2022/01/21 10:07:59;;;;;;;107.50;58.30;;;;;;;;;;5006615;28;20053;-63
2022/01/21 10:10:25;;;;;;;117.67;58.80;;;;;;;;;;4992061;28;20104;-63
2022/01/21 10:13:01;;;;;;;104.23;57.10;;;;;;;;;;4996748;28;20084;-63
2022/01/21 10:15:27;;;;;;;110.20;60.20;;;;;;;;;;5000527;28;20034;-63
2022/01/21 10:18:11;;;;;;;112.10;59.33;;;;;;;;;;5014311;28;20755;-63
2022/01/21 10:20:37;;;;;;;116.53;60.90;;;;;;;;;;5021592;28;20049;-63
2022/01/21 10:23:03;;;;;;;105.67;57.87;;;;;;;;;;5019177;28;20073;-62
2022/01/21 10:25:29;;;;;;;110.17;57.47;;;;;;;;;;5018005;28;20113;-62
2022/01/21 10:28:08;;;;;;;112.17;58.73;;;;;;;;;;5010953;28;20034;-62
2022/01/21 10:30:34;;;;;;;110.23;58.57;;;;;;;;;;4994957;28;20034;-62
2022/01/21 10:33:00;;;;;;;105.43;57.67;;;;;;;;;;5008951;28;20092;-63
2022/01/21 10:35:35;;;;;;;102.27;56.77;;;;;;;;;;5001424;28;20042;-62
2022/01/21 10:38:16;;;;;;;107.10;57.28;;;;;;;;;;5009336;28;20041;-61
2022/01/21 10:40:42;;;;;;;105.03;53.27;;;;;;;;;;5018458;28;20088;-61
2022/01/21 10:43:13;;;;;;;96.60;55.43;;;;;;;;;;5020451;28;20521;-61
2022/01/21 10:45:54;;;;;;;105.80;57.10;;;;;;;;;;5013356;28;20049;-62
2022/01/21 10:48:20;;;;;;;107.13;56.90;;;;;;;;;;5025542;28;20045;-62
2022/01/21 10:50:47;;;;;;;111.73;58.23;;;;;;;;;;5018845;28;20392;-62
2022/01/21 10:53:29;;;;;;;105.40;59.17;;;;;;;;;;5017580;28;20398;-62
2022/01/21 10:56:07;;;;;;;101.70;56.10;;;;;;;;;;5016249;28;20486;-62
2022/01/21 10:58:41;;;;;;;109.47;58.57;;;;;;;;;;5006959;28;20111;-63
2022/01/21 11:01:11;;;;;;;104.63;56.53;;;;;;;;;;5020877;28;20045;-63
2022/01/21 11:03:54;;;;;;;105.63;55.83;;;;;;;;;;5019914;28;20120;-63
2022/01/21 11:06:23;;;;;;;102.17;57.27;;;;;;;;;;4996142;28;20092;-63
2022/01/21 11:08:50;;;;;;;110.43;58.10;;;;;;;;;;5024227;28;20038;-63
2022/01/21 11:11:22;;;;;;;104.33;57.23;;;;;;;;;;5019639;28;20026;-62
2022/01/21 11:13:48;;;;;;;104.13;56.70;;;;;;;;;;5007172;28;20565;-63
2022/01/21 11:16:18;;;;;;;95.30;53.60;;;;;;;;;;5015191;28;20065;-62
2022/01/21 11:18:52;;;;;;;98.93;56.73;;;;;;;;;;5017237;28;20037;-62
2022/01/21 11:21:18;;;;;;;105.07;58.27;;;;;;;;;;5016138;28;20045;-62
2022/01/21 11:23:44;;;;;;;96.93;56.87;;;;;;;;;;5014021;28;20038;-62
2022/01/21 11:26:14;;;;;;;100.17;55.10;;;;;;;;;;5016890;28;20038;-62
2022/01/21 11:28:45;;;;;;;93.20;53.37;;;;;;;;;;5017965;28;20115;-62
2022/01/21 11:31:12;;;;;;;90.27;50.83;;;;;;;;;;5015950;28;20399;-62
2022/01/21 11:33:38;;;;;;;95.27;54.17;;;;;;;;;;5015949;28;20108;-62
2022/01/21 11:36:05;;;;;;;90.67;50.63;;;;;;;;;;5018002;28;20124;-62
2022/01/21 11:38:32;;;;;;;91.53;50.97;;;;;;;;;;5017583;28;20077;-63
2022/01/21 11:40:59;;;;;;;94.27;51.93;;;;;;;;;;5019170;28;20116;-62
2022/01/21 11:43:25;;;;;;;86.80;48.60;;;;;;;;;;5021176;28;20135;-63
2022/01/21 11:48:50;;;;;;;74.47;44.70;;;;;;;;;;5019598;28;20048;-62
2022/01/21 11:51:26;;;;;;;80.00;44.63;;;;;;;;;;5007337;28;20038;-63
2022/01/21 11:53:53;;;;;;;80.43;45.80;;;;;;;;;;4997140;28;20081;-62
2022/01/21 11:56:42;;;;;;;79.63;46.33;;;;;;;;;;5008389;28;20132;-62
2022/01/21 11:59:08;;;;;;;81.93;44.67;;;;;;;;;;4992948;28;20038;-62
2022/01/21 12:01:47;;;;;;;75.83;45.63;;;;;;;;;;5002952;28;20573;-62
2022/01/21 12:04:13;;;;;;;75.83;42.73;;;;;;;;;;5011178;28;20041;-62
2022/01/21 12:06:39;;;;;;;86.13;46.73;;;;;;;;;;5008479;28;20152;-62
2022/01/21 12:09:08;;;;;;;81.40;44.87;;;;;;;;;;5010112;28;20045;-62
2022/01/21 12:11:35;;;;;;;81.57;44.90;;;;;;;;;;5018611;28;20053;-62
2022/01/21 12:14:04;;;;;;;78.40;45.63;;;;;;;;;;5020674;28;20042;-62
2022/01/21 12:17:01;;;;;;;78.53;43.73;;;;;;;;;;5017530;28;20120;-62
2022/01/21 12:19:34;;;;;;;80.57;44.73;;;;;;;;;;5021140;28;20076;-62
2022/01/21 12:22:30;;;;;;;81.40;42.87;;;;;;;;;;5018799;28;20056;-62
2022/01/21 12:25:06;;;;;;;84.05;44.20;;;;;;;;;;5014585;28;20183;-62
2022/01/21 12:27:33;;;;;;;82.23;44.40;;;;;;;;;;5023475;28;20518;-62
2022/01/21 12:30:18;;;;;;;79.77;43.57;;;;;;;;;;5015020;28;20045;-62
2022/01/21 12:32:51;;;;;;;84.93;46.20;;;;;;;;;;5015948;28;20033;-62
2022/01/21 12:35:19;;;;;;;84.40;45.57;;;;;;;;;;4999530;28;20097;-61
2022/01/21 12:39:05;;;;;;;89.07;50.90;;;;;;;;;;5000436;28;20040;-62
2022/01/21 12:40:50;;;;;;;84.00;48.17;;;;;;;;;;5013343;28;20034;-62
2022/01/21 12:43:34;;;;;;;85.60;47.17;;;;;;;;;;5001795;28;20041;-62
2022/01/21 12:46:01;;;;;;;82.38;46.38;;;;;;;;;;4989698;28;20727;-62
2022/01/21 12:48:34;;;;;;;88.53;49.07;;;;;;;;;;5005257;28;20034;-62
2022/01/21 12:51:13;;;;;;;86.57;46.87;;;;;;;;;;4995291;28;20129;-62
2022/01/21 12:55:55;;;;;;;87.93;47.63;;;;;;;;;;4992606;28;20038;-62
2022/01/21 12:56:27;;;;;;;82.97;46.63;;;;;;;;;;5009435;28;20088;-63
2022/01/21 12:58:53;;;;;;;85.60;46.30;;;;;;;;;;5015693;28;20048;-63
2022/01/21 13:01:20;;;;;;;86.13;47.67;;;;;;;;;;5016870;28;20072;-63
2022/01/21 13:04:10;;;;;;;90.13;48.90;;;;;;;;;;4993416;28;20053;-62
2022/01/21 13:06:37;;;;;;;81.80;47.47;;;;;;;;;;4995684;28;20050;-63
2022/01/21 13:09:10;;;;;;;84.80;47.10;;;;;;;;;;5010528;28;20067;-62
2022/01/21 13:11:41;;;;;;;79.30;45.53;;;;;;;;;;4995238;28;20129;-62
2022/01/21 13:14:24;;;;;;;83.70;45.87;;;;;;;;;;5003358;28;20036;-62
2022/01/21 13:17:00;;;;;;;86.23;48.33;;;;;;;;;;5011344;28;20037;-62
2022/01/21 13:19:26;;;;;;;79.90;45.07;;;;;;;;;;5008996;28;20073;-62
2022/01/21 13:21:53;;;;;;;83.07;49.47;;;;;;;;;;5016813;28;20040;-62
2022/01/21 13:24:30;;;;;;;88.47;49.80;;;;;;;;;;5015431;28;20030;-62
2022/01/21 13:26:56;;;;;;;90.33;48.00;;;;;;;;;;5007202;28;20049;-62
2022/01/21 13:29:30;;;;;;;88.73;48.77;;;;;;;;;;4997590;28;20407;-62
2022/01/21 13:31:57;;;;;;;90.53;48.10;;;;;;;;;;5010906;28;20502;-63
2022/01/21 13:34:26;;;;;;;84.70;46.57;;;;;;;;;;4990122;28;20033;-63
2022/01/21 13:36:54;;;;;;;85.83;47.57;;;;;;;;;;4993644;28;20042;-63
2022/01/21 13:39:31;;;;;;;87.83;47.23;;;;;;;;;;4999163;28;20041;-63
2022/01/21 13:41:57;;;;;;;88.00;50.13;;;;;;;;;;5008846;28;20045;-63
2022/01/21 13:44:34;;;;;;;80.10;45.17;;;;;;;;;;5012468;28;20136;-63
2022/01/21 13:47:01;;;;;;;83.90;45.77;;;;;;;;;;5009001;28;20104;-63
2022/01/21 13:49:29;;;;;;;80.50;45.83;;;;;;;;;;5012082;28;20045;-63
2022/01/21 13:51:57;;;;;;;78.30;43.70;;;;;;;;;;5013104;28;20034;-63
2022/01/21 13:54:34;;;;;;;81.33;45.47;;;;;;;;;;4995455;28;20037;-63
2022/01/21 13:57:00;;;;;;;79.13;44.50;;;;;;;;;;4998289;28;20116;-63
2022/01/21 13:59:28;;;;;;;75.13;45.53;;;;;;;;;;4998251;28;20038;-63
2022/01/21 14:02:01;;;;;;;75.00;42.83;;;;;;;;;;5009969;28;20037;-63
2022/01/21 14:04:27;;;;;;;77.20;42.20;;;;;;;;;;5000252;28;20073;-62
2022/01/21 14:06:53;;;;;;;76.53;43.50;;;;;;;;;;5002012;28;20041;-63
2022/01/21 14:09:23;;;;;;;78.37;43.37;;;;;;;;;;5001932;28;20046;-63
2022/01/21 14:11:49;;;;;;;75.63;44.00;;;;;;;;;;4991451;28;20101;-63
2022/01/21 14:14:16;;;;;;;80.57;44.77;;;;;;;;;;5003198;28;20873;-63
2022/01/21 14:16:47;;;;;;;75.80;45.20;;;;;;;;;;5016340;28;20511;-63
2022/01/21 14:19:14;;;;;;;78.07;44.17;;;;;;;;;;5005351;28;20472;-62
2022/01/21 14:21:42;;;;;;;77.90;42.33;;;;;;;;;;4994587;28;20039;-63
2022/01/21 14:27:29;;;;;;;73.97;44.63;;;;;;;;;;4987938;28;20096;-63
2022/01/21 14:29:59;;;;;;;79.87;44.83;;;;;;;;;;5025415;28;20396;-62
2022/01/21 14:32:41;;;;;;;78.07;43.37;;;;;;;;;;5016159;28;20034;-62
2022/01/21 14:35:07;;;;;;;81.03;43.80;;;;;;;;;;5011054;28;20042;-62
2022/01/21 14:50:06;;;;;;;80.22;45.53;;;;;;;;;;4988922;28;20044;-62
2022/01/21 14:52:38;;;;;;;86.80;45.07;;;;;;;;;;5020904;28;20124;-62
2022/01/21 14:55:07;;;;;;;81.63;42.30;;;;;;;;;;5016849;28;20502;-62
2022/01/21 14:57:34;;;;;;;87.60;44.77;;;;;;;;;;5015747;28;20403;-62
2022/01/21 15:00:03;;;;;;;80.63;44.30;;;;;;;;;;5017468;28;20376;-62
2022/01/21 15:02:30;;;;;;;85.20;44.83;;;;;;;;;;5014032;28;20464;-62
2022/01/21 15:04:57;;;;;;;77.67;44.70;;;;;;;;;;5030183;28;20033;-62
2022/01/21 15:07:25;;;;;;;85.33;44.73;;;;;;;;;;5022109;28;20096;-62
2022/01/21 15:09:53;;;;;;;76.30;43.73;;;;;;;;;;5023694;28;20045;-62
2022/01/21 15:15:27;;;;;;;86.00;43.43;;;;;;;;;;5019400;28;20037;-62
2022/01/21 15:17:53;;;;;;;81.23;45.00;;;;;;;;;;5016525;28;20057;-62
2022/01/21 15:20:23;;;;;;;84.80;45.23;;;;;;;;;;5016497;28;20045;-62
2022/01/21 15:22:49;;;;;;;80.57;43.83;;;;;;;;;;5018525;28;20035;-62
2022/01/21 15:25:16;;;;;;;88.07;44.63;;;;;;;;;;5046987;28;20033;-62